sensor_id;sensor_type;location;lat;lon;timestamp;temperature;humidity
21189;DHT22;39071;52.420;20.896;2022-10-16T00:01:29;15.00;1.00
21189;DHT22;39071;52.420;20.896;2022-10-16T00:03:57;15.00;1.00
21189;DHT22;39071;52.420;20.896;2022-10-16T00:06:24;15.00;1.00
21189;DHT22;39071;52.420;20.896;2022-10-16T00:08:50;15.00;1.00
21189;DHT22;39071;52.420;20.896;2022-10-16T00:11:25;15.00;1.00
21189;DHT22;39071;52.420;20.896;2022-10-16T00:13:55;15.00;1.00
21189;DHT22;39071;52.420;20.896;2022-10-16T00:16:21;15.10;1.00
21189;DHT22;39071;52.420;20.896;2022-10-16T00:18:47;15.00;1.00
21189;DHT22;39071;52.420;20.896;2022-10-16T00:21:24;15.00;99.90
21189;DHT22;39071;52.420;20.896;2022-10-16T00:23:52;15.00;1.00
21189;DHT22;39071;52.420;20.896;2022-10-16T00:26:18;15.00;1.00
21189;DHT22;39071;52.420;20.896;2022-10-16T00:28:49;15.00;99.90
21189;DHT22;39071;52.420;20.896;2022-10-16T00:31:17;14.90;99.90
21189;DHT22;39071;52.420;20.896;2022-10-16T00:33:43;14.90;99.90
21189;DHT22;39071;52.420;20.896;2022-10-16T00:36:14;14.90;99.90
21189;DHT22;39071;52.420;20.896;2022-10-16T00:38:41;14.80;99.90
21189;DHT22;39071;52.420;20.896;2022-10-16T00:41:11;14.90;99.90
21189;DHT22;39071;52.420;20.896;2022-10-16T00:43:43;14.80;99.90
21189;DHT22;39071;52.420;20.896;2022-10-16T00:46:40;14.90;1.00
21189;DHT22;39071;52.420;20.896;2022-10-16T00:51:42;15.00;1.00
21189;DHT22;39071;52.420;20.896;2022-10-16T00:54:19;15.00;1.00
21189;DHT22;39071;52.420;20.896;2022-10-16T00:56:47;15.10;99.90
21189;DHT22;39071;52.420;20.896;2022-10-16T00:59:34;15.10;1.00
21189;DHT22;39071;52.420;20.896;2022-10-16T01:02:01;15.10;99.90
21189;DHT22;39071;52.420;20.896;2022-10-16T01:04:35;15.10;1.00
21189;DHT22;39071;52.420;20.896;2022-10-16T01:11:02;15.20;99.90
21189;DHT22;39071;52.420;20.896;2022-10-16T01:13:10;15.20;1.00
21189;DHT22;39071;52.420;20.896;2022-10-16T01:18:39;15.30;1.00
21189;DHT22;39071;52.420;20.896;2022-10-16T01:21:10;15.30;1.00
21189;DHT22;39071;52.420;20.896;2022-10-16T01:29:07;15.20;1.00
21189;DHT22;39071;52.420;20.896;2022-10-16T01:31:36;15.20;1.00
21189;DHT22;39071;52.420;20.896;2022-10-16T01:34:20;15.10;99.90
21189;DHT22;39071;52.420;20.896;2022-10-16T01:37:00;15.00;1.00
21189;DHT22;39071;52.420;20.896;2022-10-16T01:39:30;15.00;1.00
21189;DHT22;39071;52.420;20.896;2022-10-16T01:42:36;15.10;1.00
21189;DHT22;39071;52.420;20.896;2022-10-16T01:45:05;15.10;99.90
21189;DHT22;39071;52.420;20.896;2022-10-16T01:47:34;15.10;1.00
21189;DHT22;39071;52.420;20.896;2022-10-16T01:50:02;15.10;99.90
21189;DHT22;39071;52.420;20.896;2022-10-16T01:52:33;15.10;99.90
21189;DHT22;39071;52.420;20.896;2022-10-16T01:55:02;15.00;99.90
21189;DHT22;39071;52.420;20.896;2022-10-16T01:57:30;15.10;99.90
21189;DHT22;39071;52.420;20.896;2022-10-16T02:00:03;15.20;99.90
21189;DHT22;39071;52.420;20.896;2022-10-16T02:02:30;15.20;99.90
21189;DHT22;39071;52.420;20.896;2022-10-16T02:05:15;15.20;15.60
21189;DHT22;39071;52.420;20.896;2022-10-16T02:07:41;15.20;1.00
21189;DHT22;39071;52.420;20.896;2022-10-16T02:10:08;15.30;1.00
21189;DHT22;39071;52.420;20.896;2022-10-16T02:12:37;15.30;1.00
21189;DHT22;39071;52.420;20.896;2022-10-16T02:15:06;15.20;1.00
21189;DHT22;39071;52.420;20.896;2022-10-16T02:17:32;15.20;1.00
21189;DHT22;39071;52.420;20.896;2022-10-16T02:19:59;15.20;1.00
21189;DHT22;39071;52.420;20.896;2022-10-16T02:22:33;15.20;1.00
21189;DHT22;39071;52.420;20.896;2022-10-16T02:25:31;15.30;1.00
21189;DHT22;39071;52.420;20.896;2022-10-16T02:28:16;15.30;1.00
21189;DHT22;39071;52.420;20.896;2022-10-16T02:30:49;15.30;1.00
21189;DHT22;39071;52.420;20.896;2022-10-16T02:33:16;15.30;1.00
21189;DHT22;39071;52.420;20.896;2022-10-16T02:35:45;15.30;1.00
21189;DHT22;39071;52.420;20.896;2022-10-16T02:38:12;15.30;1.00
21189;DHT22;39071;52.420;20.896;2022-10-16T02:40:40;15.30;1.00
21189;DHT22;39071;52.420;20.896;2022-10-16T02:43:06;15.30;1.00
21189;DHT22;39071;52.420;20.896;2022-10-16T02:45:32;15.30;1.00
21189;DHT22;39071;52.420;20.896;2022-10-16T02:47:58;15.30;1.00
21189;DHT22;39071;52.420;20.896;2022-10-16T02:50:24;15.30;1.00
21189;DHT22;39071;52.420;20.896;2022-10-16T02:52:51;15.30;1.00
21189;DHT22;39071;52.420;20.896;2022-10-16T02:55:17;15.30;1.00
21189;DHT22;39071;52.420;20.896;2022-10-16T02:57:43;15.30;1.00
21189;DHT22;39071;52.420;20.896;2022-10-16T03:00:13;15.30;1.00
21189;DHT22;39071;52.420;20.896;2022-10-16T03:02:40;15.40;1.00
21189;DHT22;39071;52.420;20.896;2022-10-16T03:05:06;15.30;99.90
21189;DHT22;39071;52.420;20.896;2022-10-16T03:07:32;15.30;99.90
21189;DHT22;39071;52.420;20.896;2022-10-16T03:09:58;15.30;1.00
21189;DHT22;39071;52.420;20.896;2022-10-16T03:12:26;15.30;99.90
21189;DHT22;39071;52.420;20.896;2022-10-16T03:14:52;15.30;99.90
21189;DHT22;39071;52.420;20.896;2022-10-16T03:17:18;15.30;99.90
21189;DHT22;39071;52.420;20.896;2022-10-16T03:19:44;15.30;99.90
21189;DHT22;39071;52.420;20.896;2022-10-16T03:22:10;15.30;99.90
21189;DHT22;39071;52.420;20.896;2022-10-16T03:24:35;15.30;33.50
21189;DHT22;39071;52.420;20.896;2022-10-16T03:27:01;15.20;1.00
21189;DHT22;39071;52.420;20.896;2022-10-16T03:29:27;15.30;99.90
21189;DHT22;39071;52.420;20.896;2022-10-16T03:31:55;15.20;99.90
21189;DHT22;39071;52.420;20.896;2022-10-16T03:34:21;15.20;1.90
21189;DHT22;39071;52.420;20.896;2022-10-16T03:36:47;15.20;1.00
21189;DHT22;39071;52.420;20.896;2022-10-16T03:39:13;15.10;99.90
21189;DHT22;39071;52.420;20.896;2022-10-16T03:41:39;15.10;99.90
21189;DHT22;39071;52.420;20.896;2022-10-16T03:44:05;15.00;99.90
21189;DHT22;39071;52.420;20.896;2022-10-16T03:46:31;15.10;99.90
21189;DHT22;39071;52.420;20.896;2022-10-16T03:48:57;15.10;99.90
21189;DHT22;39071;52.420;20.896;2022-10-16T03:51:23;15.10;2.50
21189;DHT22;39071;52.420;20.896;2022-10-16T03:53:48;15.00;1.00
21189;DHT22;39071;52.420;20.896;2022-10-16T03:56:14;15.10;99.90
21189;DHT22;39071;52.420;20.896;2022-10-16T03:58:40;15.10;99.90
21189;DHT22;39071;52.420;20.896;2022-10-16T04:01:06;15.10;99.90
21189;DHT22;39071;52.420;20.896;2022-10-16T04:03:32;15.00;49.70
21189;DHT22;39071;52.420;20.896;2022-10-16T04:05:57;15.00;92.00
21189;DHT22;39071;52.420;20.896;2022-10-16T04:08:23;15.00;1.00
21189;DHT22;39071;52.420;20.896;2022-10-16T04:10:49;14.90;1.00
21189;DHT22;39071;52.420;20.896;2022-10-16T04:13:14;14.90;1.00
21189;DHT22;39071;52.420;20.896;2022-10-16T04:15:40;14.90;1.00
21189;DHT22;39071;52.420;20.896;2022-10-16T04:18:06;14.90;86.90
21189;DHT22;39071;52.420;20.896;2022-10-16T04:20:33;14.80;1.00
21189;DHT22;39071;52.420;20.896;2022-10-16T04:22:59;14.80;96.90
21189;DHT22;39071;52.420;20.896;2022-10-16T04:25:24;14.80;99.90
21189;DHT22;39071;52.420;20.896;2022-10-16T04:27:52;14.80;99.90
21189;DHT22;39071;52.420;20.896;2022-10-16T04:30:19;14.80;99.90
21189;DHT22;39071;52.420;20.896;2022-10-16T04:32:49;14.70;99.90
21189;DHT22;39071;52.420;20.896;2022-10-16T04:35:16;14.70;99.90
21189;DHT22;39071;52.420;20.896;2022-10-16T04:37:41;14.70;99.90
21189;DHT22;39071;52.420;20.896;2022-10-16T04:40:07;14.60;1.00
21189;DHT22;39071;52.420;20.896;2022-10-16T04:42:33;14.60;1.00
21189;DHT22;39071;52.420;20.896;2022-10-16T04:44:59;14.60;99.90
21189;DHT22;39071;52.420;20.896;2022-10-16T04:47:24;14.50;1.00
21189;DHT22;39071;52.420;20.896;2022-10-16T04:49:50;14.50;1.00
21189;DHT22;39071;52.420;20.896;2022-10-16T04:52:16;14.40;1.00
21189;DHT22;39071;52.420;20.896;2022-10-16T04:54:42;14.30;1.00
21189;DHT22;39071;52.420;20.896;2022-10-16T04:57:11;14.30;1.00
21189;DHT22;39071;52.420;20.896;2022-10-16T04:59:36;14.30;1.00
21189;DHT22;39071;52.420;20.896;2022-10-16T05:02:02;14.20;1.00
21189;DHT22;39071;52.420;20.896;2022-10-16T05:04:28;14.20;1.00
21189;DHT22;39071;52.420;20.896;2022-10-16T05:06:54;14.20;56.00
21189;DHT22;39071;52.420;20.896;2022-10-16T05:09:20;14.10;94.70
21189;DHT22;39071;52.420;20.896;2022-10-16T05:11:46;14.10;99.90
21189;DHT22;39071;52.420;20.896;2022-10-16T05:14:11;14.00;99.90
21189;DHT22;39071;52.420;20.896;2022-10-16T05:16:37;14.00;1.00
21189;DHT22;39071;52.420;20.896;2022-10-16T05:19:03;13.90;1.00
21189;DHT22;39071;52.420;20.896;2022-10-16T05:21:29;13.90;1.00
21189;DHT22;39071;52.420;20.896;2022-10-16T05:23:55;13.90;1.00
21189;DHT22;39071;52.420;20.896;2022-10-16T05:26:21;13.80;1.00
21189;DHT22;39071;52.420;20.896;2022-10-16T05:28:46;13.90;1.00
21189;DHT22;39071;52.420;20.896;2022-10-16T05:31:12;13.90;1.00
21189;DHT22;39071;52.420;20.896;2022-10-16T05:33:38;13.90;1.00
21189;DHT22;39071;52.420;20.896;2022-10-16T05:36:08;13.80;70.50
21189;DHT22;39071;52.420;20.896;2022-10-16T05:38:35;13.80;99.90
21189;DHT22;39071;52.420;20.896;2022-10-16T05:41:01;13.80;99.90
21189;DHT22;39071;52.420;20.896;2022-10-16T05:43:28;13.90;99.90
21189;DHT22;39071;52.420;20.896;2022-10-16T05:46:20;13.80;99.90
21189;DHT22;39071;52.420;20.896;2022-10-16T05:48:46;13.80;99.90
21189;DHT22;39071;52.420;20.896;2022-10-16T05:51:13;13.90;1.00
21189;DHT22;39071;52.420;20.896;2022-10-16T05:53:41;13.90;99.90
21189;DHT22;39071;52.420;20.896;2022-10-16T05:56:08;14.00;99.90
21189;DHT22;39071;52.420;20.896;2022-10-16T05:58:37;14.10;99.90
21189;DHT22;39071;52.420;20.896;2022-10-16T06:01:05;14.00;99.90
21189;DHT22;39071;52.420;20.896;2022-10-16T06:03:33;14.00;99.90
21189;DHT22;39071;52.420;20.896;2022-10-16T06:05:59;14.00;99.90
21189;DHT22;39071;52.420;20.896;2022-10-16T06:08:25;14.10;99.90
21189;DHT22;39071;52.420;20.896;2022-10-16T06:11:12;14.00;99.90
21189;DHT22;39071;52.420;20.896;2022-10-16T06:13:38;14.10;99.90
21189;DHT22;39071;52.420;20.896;2022-10-16T06:16:07;14.10;99.90
21189;DHT22;39071;52.420;20.896;2022-10-16T06:18:33;14.10;99.90
21189;DHT22;39071;52.420;20.896;2022-10-16T06:20:59;14.10;99.90
21189;DHT22;39071;52.420;20.896;2022-10-16T06:23:25;14.10;1.00
21189;DHT22;39071;52.420;20.896;2022-10-16T06:25:51;14.10;1.00
21189;DHT22;39071;52.420;20.896;2022-10-16T06:28:17;14.20;1.00
21189;DHT22;39071;52.420;20.896;2022-10-16T06:30:43;14.30;1.00
21189;DHT22;39071;52.420;20.896;2022-10-16T06:33:12;14.30;1.00
21189;DHT22;39071;52.420;20.896;2022-10-16T06:35:37;14.20;1.00
21189;DHT22;39071;52.420;20.896;2022-10-16T06:38:03;14.30;1.00
21189;DHT22;39071;52.420;20.896;2022-10-16T06:40:29;14.30;1.00
21189;DHT22;39071;52.420;20.896;2022-10-16T06:42:55;14.40;1.00
21189;DHT22;39071;52.420;20.896;2022-10-16T06:45:21;14.40;1.00
21189;DHT22;39071;52.420;20.896;2022-10-16T06:47:47;14.50;1.00
21189;DHT22;39071;52.420;20.896;2022-10-16T06:50:12;14.60;1.00
21189;DHT22;39071;52.420;20.896;2022-10-16T06:52:39;14.60;99.90
21189;DHT22;39071;52.420;20.896;2022-10-16T06:55:05;14.90;99.90
21189;DHT22;39071;52.420;20.896;2022-10-16T06:57:31;15.10;1.00
21189;DHT22;39071;52.420;20.896;2022-10-16T06:59:57;15.20;99.90
21189;DHT22;39071;52.420;20.896;2022-10-16T07:02:22;15.30;1.00
21189;DHT22;39071;52.420;20.896;2022-10-16T07:04:48;15.60;1.00
21189;DHT22;39071;52.420;20.896;2022-10-16T07:07:14;15.90;99.90
21189;DHT22;39071;52.420;20.896;2022-10-16T07:09:40;16.20;1.00
21189;DHT22;39071;52.420;20.896;2022-10-16T07:12:06;16.50;1.00
21189;DHT22;39071;52.420;20.896;2022-10-16T07:14:31;16.40;1.00
21189;DHT22;39071;52.420;20.896;2022-10-16T07:16:57;16.30;99.90
21189;DHT22;39071;52.420;20.896;2022-10-16T07:19:23;16.30;99.90
21189;DHT22;39071;52.420;20.896;2022-10-16T07:21:50;16.10;1.00
21189;DHT22;39071;52.420;20.896;2022-10-16T07:24:16;16.10;19.80
21189;DHT22;39071;52.420;20.896;2022-10-16T07:26:44;16.20;1.00
21189;DHT22;39071;52.420;20.896;2022-10-16T07:29:19;16.10;1.00
21189;DHT22;39071;52.420;20.896;2022-10-16T07:31:46;15.90;99.90
21189;DHT22;39071;52.420;20.896;2022-10-16T07:34:12;15.90;99.90
21189;DHT22;39071;52.420;20.896;2022-10-16T07:36:39;15.90;1.00
21189;DHT22;39071;52.420;20.896;2022-10-16T07:39:05;15.90;99.90
21189;DHT22;39071;52.420;20.896;2022-10-16T07:41:31;15.90;1.00
21189;DHT22;39071;52.420;20.896;2022-10-16T07:43:58;15.80;1.00
21189;DHT22;39071;52.420;20.896;2022-10-16T07:46:28;15.80;99.90
21189;DHT22;39071;52.420;20.896;2022-10-16T07:48:54;15.90;99.90
21189;DHT22;39071;52.420;20.896;2022-10-16T07:51:24;16.40;99.90
21189;DHT22;39071;52.420;20.896;2022-10-16T07:53:51;16.90;1.00
21189;DHT22;39071;52.420;20.896;2022-10-16T07:56:17;17.30;1.00
21189;DHT22;39071;52.420;20.896;2022-10-16T07:58:44;17.30;1.00
21189;DHT22;39071;52.420;20.896;2022-10-16T08:01:12;17.30;99.90
21189;DHT22;39071;52.420;20.896;2022-10-16T08:03:45;17.30;99.90
21189;DHT22;39071;52.420;20.896;2022-10-16T08:06:11;17.40;99.90
21189;DHT22;39071;52.420;20.896;2022-10-16T08:08:37;17.50;99.90
21189;DHT22;39071;52.420;20.896;2022-10-16T08:11:02;17.70;97.10
21189;DHT22;39071;52.420;20.896;2022-10-16T08:13:32;17.60;1.00
21189;DHT22;39071;52.420;20.896;2022-10-16T08:15:58;17.50;1.00
21189;DHT22;39071;52.420;20.896;2022-10-16T08:18:24;17.60;1.00
21189;DHT22;39071;52.420;20.896;2022-10-16T08:20:59;17.70;1.00
21189;DHT22;39071;52.420;20.896;2022-10-16T08:23:26;17.70;1.00
21189;DHT22;39071;52.420;20.896;2022-10-16T08:25:53;17.80;1.00
21189;DHT22;39071;52.420;20.896;2022-10-16T08:28:19;17.90;99.90
21189;DHT22;39071;52.420;20.896;2022-10-16T08:30:45;18.00;1.00
21189;DHT22;39071;52.420;20.896;2022-10-16T08:33:11;18.10;1.00
21189;DHT22;39071;52.420;20.896;2022-10-16T08:35:37;18.40;99.90
21189;DHT22;39071;52.420;20.896;2022-10-16T08:38:04;18.30;1.00
21189;DHT22;39071;52.420;20.896;2022-10-16T08:40:32;18.40;1.00
21189;DHT22;39071;52.420;20.896;2022-10-16T08:48:22;18.40;1.00
21189;DHT22;39071;52.420;20.896;2022-10-16T08:50:52;18.40;1.00
21189;DHT22;39071;52.420;20.896;2022-10-16T08:53:29;18.50;1.00
21189;DHT22;39071;52.420;20.896;2022-10-16T08:55:56;18.50;1.00
21189;DHT22;39071;52.420;20.896;2022-10-16T08:58:29;18.40;1.00
21189;DHT22;39071;52.420;20.896;2022-10-16T09:00:58;18.40;1.00
21189;DHT22;39071;52.420;20.896;2022-10-16T09:06:16;18.30;99.90
21189;DHT22;39071;52.420;20.896;2022-10-16T09:09:05;18.40;99.90
21189;DHT22;39071;52.420;20.896;2022-10-16T09:12:31;18.40;57.20
21189;DHT22;39071;52.420;20.896;2022-10-16T09:20:03;18.70;99.90
21189;DHT22;39071;52.420;20.896;2022-10-16T09:22:35;18.90;99.90
21189;DHT22;39071;52.420;20.896;2022-10-16T09:25:14;19.00;1.00
21189;DHT22;39071;52.420;20.896;2022-10-16T09:27:40;19.10;1.00
21189;DHT22;39071;52.420;20.896;2022-10-16T09:30:18;19.10;1.00
21189;DHT22;39071;52.420;20.896;2022-10-16T09:32:47;19.10;1.00
21189;DHT22;39071;52.420;20.896;2022-10-16T09:35:19;19.20;1.00
21189;DHT22;39071;52.420;20.896;2022-10-16T09:37:48;19.30;1.00
21189;DHT22;39071;52.420;20.896;2022-10-16T09:42:57;19.20;1.00
21189;DHT22;39071;52.420;20.896;2022-10-16T09:45:24;19.30;1.00
21189;DHT22;39071;52.420;20.896;2022-10-16T09:47:50;19.40;1.00
21189;DHT22;39071;52.420;20.896;2022-10-16T09:50:27;19.40;1.00
21189;DHT22;39071;52.420;20.896;2022-10-16T09:53:10;19.50;1.00
21189;DHT22;39071;52.420;20.896;2022-10-16T09:55:36;19.60;1.00
21189;DHT22;39071;52.420;20.896;2022-10-16T09:58:02;19.60;1.00
21189;DHT22;39071;52.420;20.896;2022-10-16T10:00:27;19.60;1.00
21189;DHT22;39071;52.420;20.896;2022-10-16T10:02:55;19.70;1.00
21189;DHT22;39071;52.420;20.896;2022-10-16T10:05:27;19.70;1.00
21189;DHT22;39071;52.420;20.896;2022-10-16T10:08:01;19.70;1.00
21189;DHT22;39071;52.420;20.896;2022-10-16T10:10:33;19.80;99.90
21189;DHT22;39071;52.420;20.896;2022-10-16T10:13:00;19.90;1.00
21189;DHT22;39071;52.420;20.896;2022-10-16T10:15:30;19.80;99.90
21189;DHT22;39071;52.420;20.896;2022-10-16T10:17:58;19.80;99.90
21189;DHT22;39071;52.420;20.896;2022-10-16T10:20:33;19.90;99.90
21189;DHT22;39071;52.420;20.896;2022-10-16T10:23:00;19.80;99.90
21189;DHT22;39071;52.420;20.896;2022-10-16T10:30:47;20.00;1.00
21189;DHT22;39071;52.420;20.896;2022-10-16T10:36:22;19.90;99.90
21189;DHT22;39071;52.420;20.896;2022-10-16T10:38:59;20.00;99.90
21189;DHT22;39071;52.420;20.896;2022-10-16T10:48:06;20.30;99.90
21189;DHT22;39071;52.420;20.896;2022-10-16T10:53:47;20.10;99.90
21189;DHT22;39071;52.420;20.896;2022-10-16T11:07:20;20.10;99.90
21189;DHT22;39071;52.420;20.896;2022-10-16T11:09:55;20.00;99.90
21189;DHT22;39071;52.420;20.896;2022-10-16T11:12:27;20.00;99.90
21189;DHT22;39071;52.420;20.896;2022-10-16T11:15:17;20.00;99.90
21189;DHT22;39071;52.420;20.896;2022-10-16T11:20:40;20.00;99.90
21189;DHT22;39071;52.420;20.896;2022-10-16T11:23:17;20.10;99.90
21189;DHT22;39071;52.420;20.896;2022-10-16T11:25:47;20.10;99.90
21189;DHT22;39071;52.420;20.896;2022-10-16T11:28:25;20.20;99.90
21189;DHT22;39071;52.420;20.896;2022-10-16T11:31:07;20.20;99.90
21189;DHT22;39071;52.420;20.896;2022-10-16T11:33:47;20.10;99.90
21189;DHT22;39071;52.420;20.896;2022-10-16T11:36:27;20.20;99.90
21189;DHT22;39071;52.420;20.896;2022-10-16T11:39:16;20.30;99.90
21189;DHT22;39071;52.420;20.896;2022-10-16T11:49:46;20.40;1.00
21189;DHT22;39071;52.420;20.896;2022-10-16T11:52:23;20.50;64.00
21189;DHT22;39071;52.420;20.896;2022-10-16T11:57:27;20.30;79.50
21189;DHT22;39071;52.420;20.896;2022-10-16T12:00:17;20.20;99.90
21189;DHT22;39071;52.420;20.896;2022-10-16T12:03:11;20.30;99.90
21189;DHT22;39071;52.420;20.896;2022-10-16T12:06:18;20.30;99.90
21189;DHT22;39071;52.420;20.896;2022-10-16T12:08:47;20.30;99.90
21189;DHT22;39071;52.420;20.896;2022-10-16T12:16:39;20.30;99.90
21189;DHT22;39071;52.420;20.896;2022-10-16T12:19:17;20.20;99.90
21189;DHT22;39071;52.420;20.896;2022-10-16T12:21:44;20.20;99.90
21189;DHT22;39071;52.420;20.896;2022-10-16T12:24:50;20.30;99.90
21189;DHT22;39071;52.420;20.896;2022-10-16T12:27:34;20.30;99.90
21189;DHT22;39071;52.420;20.896;2022-10-16T12:30:03;20.30;99.90
21189;DHT22;39071;52.420;20.896;2022-10-16T12:32:32;20.30;99.90
21189;DHT22;39071;52.420;20.896;2022-10-16T12:35:00;20.30;99.90
21189;DHT22;39071;52.420;20.896;2022-10-16T12:37:33;20.30;99.90
21189;DHT22;39071;52.420;20.896;2022-10-16T12:40:13;20.20;99.90
21189;DHT22;39071;52.420;20.896;2022-10-16T12:42:40;20.20;99.90
21189;DHT22;39071;52.420;20.896;2022-10-16T12:45:31;20.20;99.90
21189;DHT22;39071;52.420;20.896;2022-10-16T12:47:59;20.10;99.90
21189;DHT22;39071;52.420;20.896;2022-10-16T12:50:34;20.20;99.90
21189;DHT22;39071;52.420;20.896;2022-10-16T12:53:01;20.30;99.90
21189;DHT22;39071;52.420;20.896;2022-10-16T12:55:43;20.20;99.90
21189;DHT22;39071;52.420;20.896;2022-10-16T12:58:27;20.30;99.90
21189;DHT22;39071;52.420;20.896;2022-10-16T13:00:57;20.50;99.90
21189;DHT22;39071;52.420;20.896;2022-10-16T13:09:32;20.40;99.90
21189;DHT22;39071;52.420;20.896;2022-10-16T13:12:15;20.40;99.90
21189;DHT22;39071;52.420;20.896;2022-10-16T13:17:44;20.40;99.90
21189;DHT22;39071;52.420;20.896;2022-10-16T13:28:29;20.20;99.90
21189;DHT22;39071;52.420;20.896;2022-10-16T13:30:59;20.10;99.90
21189;DHT22;39071;52.420;20.896;2022-10-16T13:33:36;20.00;99.90
21189;DHT22;39071;52.420;20.896;2022-10-16T13:36:04;20.00;99.90
21189;DHT22;39071;52.420;20.896;2022-10-16T13:38:31;20.10;99.90
21189;DHT22;39071;52.420;20.896;2022-10-16T13:43:31;20.20;99.90
21189;DHT22;39071;52.420;20.896;2022-10-16T13:46:06;20.20;99.90
21189;DHT22;39071;52.420;20.896;2022-10-16T13:48:33;20.20;99.90
21189;DHT22;39071;52.420;20.896;2022-10-16T13:51:04;20.20;99.90
21189;DHT22;39071;52.420;20.896;2022-10-16T13:53:32;20.30;99.90
21189;DHT22;39071;52.420;20.896;2022-10-16T13:55:58;20.30;99.90
21189;DHT22;39071;52.420;20.896;2022-10-16T13:58:26;20.10;99.90
21189;DHT22;39071;52.420;20.896;2022-10-16T14:01:06;20.20;99.90
21189;DHT22;39071;52.420;20.896;2022-10-16T14:03:39;20.20;99.90
21189;DHT22;39071;52.420;20.896;2022-10-16T14:06:12;20.10;99.90
21189;DHT22;39071;52.420;20.896;2022-10-16T14:08:43;20.10;99.90
21189;DHT22;39071;52.420;20.896;2022-10-16T14:11:10;20.10;99.90
21189;DHT22;39071;52.420;20.896;2022-10-16T14:13:46;20.10;1.00
21189;DHT22;39071;52.420;20.896;2022-10-16T14:16:21;20.10;1.00
21189;DHT22;39071;52.420;20.896;2022-10-16T14:18:59;20.10;1.00
21189;DHT22;39071;52.420;20.896;2022-10-16T14:21:25;20.10;1.00
21189;DHT22;39071;52.420;20.896;2022-10-16T14:23:52;20.10;1.00
21189;DHT22;39071;52.420;20.896;2022-10-16T14:26:21;20.10;1.00
21189;DHT22;39071;52.420;20.896;2022-10-16T14:28:48;20.00;1.00
21189;DHT22;39071;52.420;20.896;2022-10-16T14:33:49;20.10;1.00
21189;DHT22;39071;52.420;20.896;2022-10-16T14:36:16;20.00;1.00
21189;DHT22;39071;52.420;20.896;2022-10-16T14:41:23;20.00;1.00
21189;DHT22;39071;52.420;20.896;2022-10-16T14:43:56;19.80;1.00
21189;DHT22;39071;52.420;20.896;2022-10-16T14:46:32;19.80;99.90
21189;DHT22;39071;52.420;20.896;2022-10-16T14:49:19;19.80;99.90
21189;DHT22;39071;52.420;20.896;2022-10-16T14:51:46;19.70;99.90
21189;DHT22;39071;52.420;20.896;2022-10-16T14:54:13;19.80;99.90
21189;DHT22;39071;52.420;20.896;2022-10-16T14:56:54;19.80;1.00
21189;DHT22;39071;52.420;20.896;2022-10-16T14:59:41;19.80;1.00
21189;DHT22;39071;52.420;20.896;2022-10-16T15:04:45;19.70;1.00
21189;DHT22;39071;52.420;20.896;2022-10-16T15:07:11;19.70;1.00
21189;DHT22;39071;52.420;20.896;2022-10-16T15:09:36;19.70;1.00
21189;DHT22;39071;52.420;20.896;2022-10-16T15:12:02;19.70;1.00
21189;DHT22;39071;52.420;20.896;2022-10-16T15:14:28;19.60;18.80
21189;DHT22;39071;52.420;20.896;2022-10-16T15:16:54;19.60;99.90
21189;DHT22;39071;52.420;20.896;2022-10-16T15:19:19;19.60;99.90
21189;DHT22;39071;52.420;20.896;2022-10-16T15:21:45;19.60;99.90
21189;DHT22;39071;52.420;20.896;2022-10-16T15:24:12;19.60;99.90
21189;DHT22;39071;52.420;20.896;2022-10-16T15:26:39;19.50;1.00
21189;DHT22;39071;52.420;20.896;2022-10-16T15:29:05;19.50;1.00
21189;DHT22;39071;52.420;20.896;2022-10-16T15:31:31;19.50;1.00
21189;DHT22;39071;52.420;20.896;2022-10-16T15:33:57;19.50;1.00
21189;DHT22;39071;52.420;20.896;2022-10-16T15:36:33;19.40;99.90
21189;DHT22;39071;52.420;20.896;2022-10-16T15:39:05;19.30;99.90
21189;DHT22;39071;52.420;20.896;2022-10-16T15:41:31;19.30;99.90
21189;DHT22;39071;52.420;20.896;2022-10-16T15:43:57;19.20;15.50
21189;DHT22;39071;52.420;20.896;2022-10-16T15:46:24;19.20;1.00
21189;DHT22;39071;52.420;20.896;2022-10-16T15:48:51;19.00;1.00
21189;DHT22;39071;52.420;20.896;2022-10-16T15:51:17;18.90;1.00
21189;DHT22;39071;52.420;20.896;2022-10-16T15:53:43;18.80;99.90
21189;DHT22;39071;52.420;20.896;2022-10-16T15:56:12;18.70;1.00
21189;DHT22;39071;52.420;20.896;2022-10-16T15:58:39;18.60;1.00
21189;DHT22;39071;52.420;20.896;2022-10-16T16:01:05;18.60;80.30
21189;DHT22;39071;52.420;20.896;2022-10-16T16:03:31;18.50;99.90
21189;DHT22;39071;52.420;20.896;2022-10-16T16:06:02;18.40;1.00
21189;DHT22;39071;52.420;20.896;2022-10-16T16:08:28;18.30;1.00
21189;DHT22;39071;52.420;20.896;2022-10-16T16:10:58;18.20;92.50
21189;DHT22;39071;52.420;20.896;2022-10-16T16:13:24;18.20;99.90
21189;DHT22;39071;52.420;20.896;2022-10-16T16:15:50;18.10;1.00
21189;DHT22;39071;52.420;20.896;2022-10-16T16:18:16;18.10;1.00
21189;DHT22;39071;52.420;20.896;2022-10-16T16:20:41;18.00;1.00
21189;DHT22;39071;52.420;20.896;2022-10-16T16:23:07;18.00;1.00
21189;DHT22;39071;52.420;20.896;2022-10-16T16:25:33;17.90;1.00
21189;DHT22;39071;52.420;20.896;2022-10-16T16:27:59;17.90;1.00
21189;DHT22;39071;52.420;20.896;2022-10-16T16:30:24;17.90;5.80
21189;DHT22;39071;52.420;20.896;2022-10-16T16:32:50;17.90;99.90
21189;DHT22;39071;52.420;20.896;2022-10-16T16:35:16;17.90;99.90
21189;DHT22;39071;52.420;20.896;2022-10-16T16:37:42;17.80;99.90
21189;DHT22;39071;52.420;20.896;2022-10-16T16:40:08;17.80;1.00
21189;DHT22;39071;52.420;20.896;2022-10-16T16:42:34;17.80;1.00
21189;DHT22;39071;52.420;20.896;2022-10-16T16:44:59;17.80;1.00
21189;DHT22;39071;52.420;20.896;2022-10-16T16:47:25;17.80;1.00
21189;DHT22;39071;52.420;20.896;2022-10-16T16:49:51;17.80;1.00
21189;DHT22;39071;52.420;20.896;2022-10-16T16:52:17;17.80;1.00
21189;DHT22;39071;52.420;20.896;2022-10-16T16:54:43;17.70;1.00
21189;DHT22;39071;52.420;20.896;2022-10-16T16:57:10;17.70;1.00
21189;DHT22;39071;52.420;20.896;2022-10-16T16:59:36;17.70;1.00
21189;DHT22;39071;52.420;20.896;2022-10-16T17:02:03;17.70;1.00
21189;DHT22;39071;52.420;20.896;2022-10-16T17:04:29;17.60;1.00
21189;DHT22;39071;52.420;20.896;2022-10-16T17:06:54;17.60;1.00
21189;DHT22;39071;52.420;20.896;2022-10-16T17:09:20;17.50;1.00
21189;DHT22;39071;52.420;20.896;2022-10-16T17:11:46;17.50;1.00
21189;DHT22;39071;52.420;20.896;2022-10-16T17:14:14;17.40;1.00
21189;DHT22;39071;52.420;20.896;2022-10-16T17:16:40;17.30;1.00
21189;DHT22;39071;52.420;20.896;2022-10-16T17:19:15;17.30;1.00
21189;DHT22;39071;52.420;20.896;2022-10-16T17:21:41;17.20;99.90
21189;DHT22;39071;52.420;20.896;2022-10-16T17:24:07;17.10;90.00